sensor_id;sensor_type;location;lat;lon;timestamp;pressure;altitude;pressure_sealevel;temperature;humidity
12969;BME280;6549;53.128;8.182;2022-10-18T00:02:44;102280.53;;;13.20;100.00
12969;BME280;6549;53.128;8.182;2022-10-18T00:05:46;102279.09;;;13.26;100.00
12969;BME280;6549;53.128;8.182;2022-10-18T00:08:47;102272.22;;;13.39;100.00
12969;BME280;6549;53.128;8.182;2022-10-18T00:11:47;102279.34;;;13.40;100.00
12969;BME280;6549;53.128;8.182;2022-10-18T00:14:49;102281.25;;;13.36;100.00
12969;BME280;6549;53.128;8.182;2022-10-18T00:17:49;102284.72;;;13.33;100.00
12969;BME280;6549;53.128;8.182;2022-10-18T00:20:58;102272.81;;;13.29;100.00
12969;BME280;6549;53.128;8.182;2022-10-18T00:23:59;102274.66;;;13.21;100.00
12969;BME280;6549;53.128;8.182;2022-10-18T00:26:59;102280.06;;;13.14;100.00
12969;BME280;6549;53.128;8.182;2022-10-18T00:30:00;102275.97;;;13.08;100.00
12969;BME280;6549;53.128;8.182;2022-10-18T00:33:00;102279.81;;;13.03;100.00
12969;BME280;6549;53.128;8.182;2022-10-18T00:36:00;102277.41;;;13.02;100.00
12969;BME280;6549;53.128;8.182;2022-10-18T00:39:03;102287.22;;;12.99;100.00
12969;BME280;6549;53.128;8.182;2022-10-18T00:42:03;102281.19;;;12.94;100.00
12969;BME280;6549;53.128;8.182;2022-10-18T00:45:24;102277.59;;;12.90;100.00
12969;BME280;6549;53.128;8.182;2022-10-18T00:48:25;102285.28;;;12.81;100.00
12969;BME280;6549;53.128;8.182;2022-10-18T00:51:37;102288.72;;;12.74;100.00
12969;BME280;6549;53.128;8.182;2022-10-18T00:54:41;102294.34;;;12.62;100.00
12969;BME280;6549;53.128;8.182;2022-10-18T00:57:42;102295.66;;;12.68;100.00
12969;BME280;6549;53.128;8.182;2022-10-18T01:00:43;102296.75;;;12.64;100.00
12969;BME280;6549;53.128;8.182;2022-10-18T01:03:44;102297.38;;;12.57;100.00
12969;BME280;6549;53.128;8.182;2022-10-18T01:17:21;102286.06;;;12.43;100.00
12969;BME280;6549;53.128;8.182;2022-10-18T01:30:35;102303.72;;;12.23;100.00
12969;BME280;6549;53.128;8.182;2022-10-18T01:33:43;102304.44;;;12.20;100.00
12969;BME280;6549;53.128;8.182;2022-10-18T01:36:47;102300.44;;;12.17;100.00
12969;BME280;6549;53.128;8.182;2022-10-18T01:39:53;102305.88;;;12.13;100.00
12969;BME280;6549;53.128;8.182;2022-10-18T01:42:54;102303.38;;;12.08;100.00
12969;BME280;6549;53.128;8.182;2022-10-18T01:45:56;102293.09;;;12.05;100.00
12969;BME280;6549;53.128;8.182;2022-10-18T01:48:59;102287.50;;;12.02;100.00
12969;BME280;6549;53.128;8.182;2022-10-18T01:51:59;102293.81;;;12.02;100.00
12969;BME280;6549;53.128;8.182;2022-10-18T01:55:01;102286.69;;;12.01;100.00
12969;BME280;6549;53.128;8.182;2022-10-18T01:58:15;102284.66;;;11.98;100.00
12969;BME280;6549;53.128;8.182;2022-10-18T02:01:35;102288.22;;;11.99;100.00
12969;BME280;6549;53.128;8.182;2022-10-18T02:04:57;102288.56;;;11.97;100.00
12969;BME280;6549;53.128;8.182;2022-10-18T02:08:22;102280.66;;;11.96;100.00
12969;BME280;6549;53.128;8.182;2022-10-18T02:11:25;102277.09;;;11.95;100.00
12969;BME280;6549;53.128;8.182;2022-10-18T02:14:29;102274.34;;;11.95;100.00
12969;BME280;6549;53.128;8.182;2022-10-18T02:17:31;102270.72;;;11.91;100.00
12969;BME280;6549;53.128;8.182;2022-10-18T02:20:32;102269.13;;;11.90;100.00
12969;BME280;6549;53.128;8.182;2022-10-18T02:23:32;102270.28;;;11.89;100.00
12969;BME280;6549;53.128;8.182;2022-10-18T02:26:34;102270.28;;;11.89;100.00
12969;BME280;6549;53.128;8.182;2022-10-18T02:29:35;102279.34;;;11.90;100.00
12969;BME280;6549;53.128;8.182;2022-10-18T02:32:43;102270.00;;;11.94;100.00
12969;BME280;6549;53.128;8.182;2022-10-18T02:35:51;102267.75;;;12.00;100.00
12969;BME280;6549;53.128;8.182;2022-10-18T02:39:01;102257.53;;;12.00;100.00
12969;BME280;6549;53.128;8.182;2022-10-18T02:42:05;102269.44;;;12.04;100.00
12969;BME280;6549;53.128;8.182;2022-10-18T02:45:06;102270.31;;;12.08;100.00
12969;BME280;6549;53.128;8.182;2022-10-18T02:48:06;102268.53;;;12.16;100.00
12969;BME280;6549;53.128;8.182;2022-10-18T02:51:07;102272.97;;;12.21;100.00
12969;BME280;6549;53.128;8.182;2022-10-18T02:54:07;102271.50;;;12.27;100.00
12969;BME280;6549;53.128;8.182;2022-10-18T02:57:07;102274.38;;;12.30;100.00
12969;BME280;6549;53.128;8.182;2022-10-18T03:00:08;102260.66;;;12.34;100.00
12969;BME280;6549;53.128;8.182;2022-10-18T03:03:09;102273.72;;;12.37;100.00
12969;BME280;6549;53.128;8.182;2022-10-18T03:06:09;102270.16;;;12.36;100.00
12969;BME280;6549;53.128;8.182;2022-10-18T03:09:09;102262.25;;;12.35;100.00
12969;BME280;6549;53.128;8.182;2022-10-18T03:12:10;102265.44;;;12.37;100.00
12969;BME280;6549;53.128;8.182;2022-10-18T03:15:10;102266.31;;;12.41;100.00
12969;BME280;6549;53.128;8.182;2022-10-18T03:18:11;102269.94;;;12.45;100.00
12969;BME280;6549;53.128;8.182;2022-10-18T03:21:11;102266.03;;;12.46;100.00
12969;BME280;6549;53.128;8.182;2022-10-18T03:24:11;102271.91;;;12.44;100.00
12969;BME280;6549;53.128;8.182;2022-10-18T03:27:12;102282.59;;;12.46;100.00
12969;BME280;6549;53.128;8.182;2022-10-18T03:30:12;102280.63;;;12.46;100.00
12969;BME280;6549;53.128;8.182;2022-10-18T03:33:12;102286.94;;;12.47;100.00
12969;BME280;6549;53.128;8.182;2022-10-18T03:36:13;102291.66;;;12.46;100.00
12969;BME280;6549;53.128;8.182;2022-10-18T03:39:14;102289.69;;;12.47;100.00
12969;BME280;6549;53.128;8.182;2022-10-18T03:42:14;102278.22;;;12.45;100.00
12969;BME280;6549;53.128;8.182;2022-10-18T03:45:14;102280.97;;;12.45;100.00
12969;BME280;6549;53.128;8.182;2022-10-18T03:48:15;102282.13;;;12.44;100.00
12969;BME280;6549;53.128;8.182;2022-10-18T03:51:15;102279.81;;;12.46;100.00
12969;BME280;6549;53.128;8.182;2022-10-18T03:54:15;102284.19;;;12.47;100.00
12969;BME280;6549;53.128;8.182;2022-10-18T03:57:16;102281.03;;;12.48;100.00
12969;BME280;6549;53.128;8.182;2022-10-18T04:00:16;102275.91;;;12.47;100.00
12969;BME280;6549;53.128;8.182;2022-10-18T04:03:17;102280.28;;;12.48;100.00
12969;BME280;6549;53.128;8.182;2022-10-18T04:06:18;102276.72;;;12.47;100.00
12969;BME280;6549;53.128;8.182;2022-10-18T04:09:18;102277.88;;;12.46;100.00
12969;BME280;6549;53.128;8.182;2022-10-18T04:12:18;102276.72;;;12.47;100.00
12969;BME280;6549;53.128;8.182;2022-10-18T04:15:19;102278.66;;;12.47;100.00
12969;BME280;6549;53.128;8.182;2022-10-18T04:18:19;102276.72;;;12.47;100.00
12969;BME280;6549;53.128;8.182;2022-10-18T04:21:19;102264.88;;;12.47;100.00
12969;BME280;6549;53.128;8.182;2022-10-18T04:24:20;102262.47;;;12.45;100.00
12969;BME280;6549;53.128;8.182;2022-10-18T04:27:20;102258.50;;;12.43;100.00
12969;BME280;6549;53.128;8.182;2022-10-18T04:30:21;102261.97;;;12.40;100.00
12969;BME280;6549;53.128;8.182;2022-10-18T04:33:21;102262.69;;;12.37;100.00
12969;BME280;6549;53.128;8.182;2022-10-18T04:36:21;102263.84;;;12.36;100.00
12969;BME280;6549;53.128;8.182;2022-10-18T04:39:21;102272.91;;;12.36;100.00
12969;BME280;6549;53.128;8.182;2022-10-18T04:42:22;102266.53;;;12.32;100.00
12969;BME280;6549;53.128;8.182;2022-10-18T04:45:22;102266.88;;;12.31;100.00
12969;BME280;6549;53.128;8.182;2022-10-18T04:48:23;102266.81;;;12.27;100.00
12969;BME280;6549;53.128;8.182;2022-10-18T04:51:23;102272.84;;;12.33;100.00
12969;BME280;6549;53.128;8.182;2022-10-18T04:54:23;102265.38;;;12.33;100.00
12969;BME280;6549;53.128;8.182;2022-10-18T04:57:24;102266.88;;;12.31;100.00
12969;BME280;6549;53.128;8.182;2022-10-18T05:00:24;102268.88;;;12.30;100.00
12969;BME280;6549;53.128;8.182;2022-10-18T05:03:24;102266.81;;;12.27;100.00
12969;BME280;6549;53.128;8.182;2022-10-18T05:06:25;102262.09;;;12.28;100.00
12969;BME280;6549;53.128;8.182;2022-10-18T05:09:25;102262.09;;;12.28;100.00
12969;BME280;6549;53.128;8.182;2022-10-18T05:12:25;102268.41;;;12.28;100.00
12969;BME280;6549;53.128;8.182;2022-10-18T05:15:26;102267.59;;;12.28;100.00
12969;BME280;6549;53.128;8.182;2022-10-18T05:18:26;102270.72;;;12.26;100.00
12969;BME280;6549;53.128;8.182;2022-10-18T05:21:26;102263.97;;;12.24;100.00
12969;BME280;6549;53.128;8.182;2022-10-18T05:24:27;102277.75;;;12.24;100.00
12969;BME280;6549;53.128;8.182;2022-10-18T05:27:27;102275.81;;;12.24;100.00
12969;BME280;6549;53.128;8.182;2022-10-18T05:30:28;102287.25;;;12.26;100.00
12969;BME280;6549;53.128;8.182;2022-10-18T05:33:28;102285.31;;;12.27;100.00
12969;BME280;6549;53.128;8.182;2022-10-18T05:36:29;102285.31;;;12.27;100.00
12969;BME280;6549;53.128;8.182;2022-10-18T05:39:29;102274.72;;;12.29;100.00
12969;BME280;6549;53.128;8.182;2022-10-18T05:42:29;102286.56;;;12.29;100.00
12969;BME280;6549;53.128;8.182;2022-10-18T05:45:29;102290.47;;;12.28;100.00
12969;BME280;6549;53.128;8.182;2022-10-18T05:48:30;102293.22;;;12.28;100.00
12969;BME280;6549;53.128;8.182;2022-10-18T05:51:30;102295.97;;;12.28;100.00
12969;BME280;6549;53.128;8.182;2022-10-18T05:54:30;102308.06;;;12.24;100.00
12969;BME280;6549;53.128;8.182;2022-10-18T05:57:31;102300.63;;;12.24;100.00
12969;BME280;6549;53.128;8.182;2022-10-18T06:00:31;102298.66;;;12.25;100.00
12969;BME280;6549;53.128;8.182;2022-10-18T06:03:32;102295.44;;;12.23;100.00
12969;BME280;6549;53.128;8.182;2022-10-18T06:06:32;102294.22;;;12.20;100.00
12969;BME280;6549;53.128;8.182;2022-10-18T06:09:33;102298.19;;;12.23;100.00
12969;BME280;6549;53.128;8.182;2022-10-18T06:12:33;102308.44;;;12.22;100.00
12969;BME280;6549;53.128;8.182;2022-10-18T06:15:33;102311.56;;;12.21;100.00
12969;BME280;6549;53.128;8.182;2022-10-18T06:18:34;102313.50;;;12.20;100.00
12969;BME280;6549;53.128;8.182;2022-10-18T06:21:34;102313.84;;;12.19;100.00
12969;BME280;6549;53.128;8.182;2022-10-18T06:24:34;102320.19;;;12.19;100.00
12969;BME280;6549;53.128;8.182;2022-10-18T06:27:35;102323.00;;;12.23;100.00
12969;BME280;6549;53.128;8.182;2022-10-18T06:30:35;102328.09;;;12.21;100.00
12969;BME280;6549;53.128;8.182;2022-10-18T06:33:36;102332.81;;;12.20;100.00
12969;BME280;6549;53.128;8.182;2022-10-18T06:36:36;102335.19;;;12.22;100.00
12969;BME280;6549;53.128;8.182;2022-10-18T06:39:36;102333.16;;;12.19;100.00
12969;BME280;6549;53.128;8.182;2022-10-18T06:42:37;102343.03;;;12.20;100.00
12969;BME280;6549;53.128;8.182;2022-10-18T06:45:37;102343.44;;;12.22;100.00
12969;BME280;6549;53.128;8.182;2022-10-18T06:48:38;102353.31;;;12.23;100.00
12969;BME280;6549;53.128;8.182;2022-10-18T06:51:39;102343.44;;;12.22;100.00
12969;BME280;6549;53.128;8.182;2022-10-18T06:54:39;102335.28;;;12.25;100.00
12969;BME280;6549;53.128;8.182;2022-10-18T06:57:40;102355.81;;;12.28;100.00
12969;BME280;6549;53.128;8.182;2022-10-18T07:00:40;102368.00;;;12.27;100.00
12969;BME280;6549;53.128;8.182;2022-10-18T07:03:41;102370.75;;;12.27;100.00
12969;BME280;6549;53.128;8.182;2022-10-18T07:06:41;102362.13;;;12.28;100.00
12969;BME280;6549;53.128;8.182;2022-10-18T07:09:41;102362.75;;;12.22;100.00
12969;BME280;6549;53.128;8.182;2022-10-18T07:12:42;102374.94;;;12.21;100.00
12969;BME280;6549;53.128;8.182;2022-10-18T07:15:43;102372.19;;;12.21;100.00
12969;BME280;6549;53.128;8.182;2022-10-18T07:18:45;102368.97;;;12.19;100.00
12969;BME280;6549;53.128;8.182;2022-10-18T07:21:46;102368.00;;;12.11;100.00
12969;BME280;6549;53.128;8.182;2022-10-18T07:24:46;102387.84;;;12.17;100.00
12969;BME280;6549;53.128;8.182;2022-10-18T07:27:46;102390.22;;;12.18;100.00
12969;BME280;6549;53.128;8.182;2022-10-18T07:30:47;102384.63;;;12.14;100.00
12969;BME280;6549;53.128;8.182;2022-10-18T07:33:47;102387.38;;;12.14;100.00
12969;BME280;6549;53.128;8.182;2022-10-18T07:36:47;102403.91;;;12.14;100.00
12969;BME280;6549;53.128;8.182;2022-10-18T07:39:48;102397.97;;;12.12;100.00
12969;BME280;6549;53.128;8.182;2022-10-18T07:42:48;102401.00;;;12.07;100.00
12969;BME280;6549;53.128;8.182;2022-10-18T07:45:58;102400.88;;;12.04;100.00
12969;BME280;6549;53.128;8.182;2022-10-18T07:48:58;102392.09;;;11.98;100.00
12969;BME280;6549;53.128;8.182;2022-10-18T07:51:59;102393.69;;;11.99;100.00
12969;BME280;6549;53.128;8.182;2022-10-18T07:54:59;102397.78;;;12.05;100.00
12969;BME280;6549;53.128;8.182;2022-10-18T07:57:59;102389.09;;;12.03;100.00
12969;BME280;6549;53.128;8.182;2022-10-18T08:01:01;102389.53;;;12.05;100.00
12969;BME280;6549;53.128;8.182;2022-10-18T08:04:02;102388.28;;;12.03;100.00
12969;BME280;6549;53.128;8.182;2022-10-18T08:07:02;102395.13;;;12.09;100.00
12969;BME280;6549;53.128;8.182;2022-10-18T08:10:03;102396.53;;;12.19;100.00
12969;BME280;6549;53.128;8.182;2022-10-18T08:13:03;102395.56;;;12.27;100.00
12969;BME280;6549;53.128;8.182;2022-10-18T08:16:06;102395.47;;;12.39;100.00
12969;BME280;6549;53.128;8.182;2022-10-18T08:19:06;102402.66;;;12.43;100.00
12969;BME280;6549;53.128;8.182;2022-10-18T08:22:07;102398.38;;;12.46;100.00
12969;BME280;6549;53.128;8.182;2022-10-18T08:25:07;102400.00;;;12.47;100.00
12969;BME280;6549;53.128;8.182;2022-10-18T08:28:07;102402.66;;;12.43;100.00
12969;BME280;6549;53.128;8.182;2022-10-18T08:31:13;102391.00;;;12.50;100.00
12969;BME280;6549;53.128;8.182;2022-10-18T08:34:13;102389.03;;;12.35;100.00
12969;BME280;6549;53.128;8.182;2022-10-18T08:37:14;102387.53;;;12.37;100.00
12969;BME280;6549;53.128;8.182;2022-10-18T08:40:14;102377.66;;;12.52;100.00
12969;BME280;6549;53.128;8.182;2022-10-18T08:43:25;102387.56;;;12.72;100.00
12969;BME280;6549;53.128;8.182;2022-10-18T08:46:27;102380.72;;;12.66;100.00
12969;BME280;6549;53.128;8.182;2022-10-18T08:49:38;102392.00;;;12.77;100.00
12969;BME280;6549;53.128;8.182;2022-10-18T08:52:57;102409.38;;;12.96;100.00
12969;BME280;6549;53.128;8.182;2022-10-18T08:56:04;102418.16;;;13.02;100.00
12969;BME280;6549;53.128;8.182;2022-10-18T08:59:11;102408.31;;;13.01;100.00
12969;BME280;6549;53.128;8.182;2022-10-18T09:15:56;102424.47;;;13.02;100.00
12969;BME280;6549;53.128;8.182;2022-10-18T09:22:16;102426.94;;;13.07;100.00
12969;BME280;6549;53.128;8.182;2022-10-18T09:25:23;102418.97;;;13.02;100.00
12969;BME280;6549;53.128;8.182;2022-10-18T09:31:55;102436.38;;;13.06;100.00
12969;BME280;6549;53.128;8.182;2022-10-18T09:35:04;102435.63;;;13.25;100.00
12969;BME280;6549;53.128;8.182;2022-10-18T09:38:12;102428.66;;;13.50;100.00
12969;BME280;6549;53.128;8.182;2022-10-18T09:41:46;102439.69;;;13.50;100.00
12969;BME280;6549;53.128;8.182;2022-10-18T09:44:58;102458.72;;;13.75;100.00
12969;BME280;6549;53.128;8.182;2022-10-18T09:48:06;102453.44;;;13.66;100.00
12969;BME280;6549;53.128;8.182;2022-10-18T09:51:33;102466.09;;;13.67;100.00
12969;BME280;6549;53.128;8.182;2022-10-18T09:54:40;102463.16;;;13.79;100.00
12969;BME280;6549;53.128;8.182;2022-10-18T09:57:51;102459.19;;;14.22;100.00
12969;BME280;6549;53.128;8.182;2022-10-18T10:00:54;102467.03;;;14.66;100.00
12969;BME280;6549;53.128;8.182;2022-10-18T10:03:54;102463.03;;;15.16;100.00
12969;BME280;6549;53.128;8.182;2022-10-18T10:06:58;102453.06;;;15.41;100.00
12969;BME280;6549;53.128;8.182;2022-10-18T10:10:25;102462.53;;;15.70;100.00
12969;BME280;6549;53.128;8.182;2022-10-18T10:13:25;102467.38;;;15.47;100.00
12969;BME280;6549;53.128;8.182;2022-10-18T10:16:27;102472.06;;;15.43;100.00
12969;BME280;6549;53.128;8.182;2022-10-18T10:19:37;102472.91;;;15.47;100.00
12969;BME280;6549;53.128;8.182;2022-10-18T10:22:40;102474.72;;;16.02;100.00
12969;BME280;6549;53.128;8.182;2022-10-18T10:25:41;102481.00;;;16.33;100.00
12969;BME280;6549;53.128;8.182;2022-10-18T10:28:42;102481.81;;;16.88;100.00
12969;BME280;6549;53.128;8.182;2022-10-18T10:32:00;102486.41;;;17.24;100.00
12969;BME280;6549;53.128;8.182;2022-10-18T10:35:01;102489.53;;;17.16;100.00
12969;BME280;6549;53.128;8.182;2022-10-18T10:38:01;102485.97;;;17.19;100.00
12969;BME280;6549;53.128;8.182;2022-10-18T10:41:02;102479.22;;;17.13;100.00
12969;BME280;6549;53.128;8.182;2022-10-18T10:44:04;102472.97;;;17.40;100.00
12969;BME280;6549;53.128;8.182;2022-10-18T10:47:27;102481.59;;;17.18;100.00
12969;BME280;6549;53.128;8.182;2022-10-18T10:50:30;102466.50;;;17.15;100.00
12969;BME280;6549;53.128;8.182;2022-10-18T10:53:43;102473.81;;;17.51;100.00
12969;BME280;6549;53.128;8.182;2022-10-18T10:59:57;102476.22;;;17.57;100.00
12969;BME280;6549;53.128;8.182;2022-10-18T11:03:12;102470.72;;;17.67;100.00
12969;BME280;6549;53.128;8.182;2022-10-18T11:06:31;102479.47;;;17.73;100.00
12969;BME280;6549;53.128;8.182;2022-10-18T11:09:39;102473.78;;;17.41;100.00
12969;BME280;6549;53.128;8.182;2022-10-18T11:12:45;102477.34;;;17.38;100.00
12969;BME280;6549;53.128;8.182;2022-10-18T11:15:51;102478.91;;;17.35;100.00
12969;BME280;6549;53.128;8.182;2022-10-18T11:18:55;102487.38;;;17.64;100.00
12969;BME280;6549;53.128;8.182;2022-10-18T11:21:57;102481.03;;;17.70;100.00
12969;BME280;6549;53.128;8.182;2022-10-18T11:25:01;102474.38;;;18.00;100.00
12969;BME280;6549;53.128;8.182;2022-10-18T11:28:15;102483.53;;;18.07;100.00
12969;BME280;6549;53.128;8.182;2022-10-18T11:38:37;102483.53;;;18.11;100.00
12969;BME280;6549;53.128;8.182;2022-10-18T11:41:53;102495.47;;;18.50;100.00
12969;BME280;6549;53.128;8.182;2022-10-18T11:45:07;102481.19;;;18.62;100.00
12969;BME280;6549;53.128;8.182;2022-10-18T11:52:12;102487.06;;;19.10;100.00
12969;BME280;6549;53.128;8.182;2022-10-18T12:05:21;102481.59;;;18.71;100.00
12969;BME280;6549;53.128;8.182;2022-10-18T12:08:32;102493.88;;;18.95;100.00
12969;BME280;6549;53.128;8.182;2022-10-18T12:12:01;102480.31;;;19.04;100.00
12969;BME280;6549;53.128;8.182;2022-10-18T12:15:04;102487.81;;;19.28;100.00
12969;BME280;6549;53.128;8.182;2022-10-18T12:18:11;102478.63;;;19.46;100.00
12969;BME280;6549;53.128;8.182;2022-10-18T12:21:14;102486.16;;;19.49;100.00
12969;BME280;6549;53.128;8.182;2022-10-18T12:24:21;102492.91;;;19.55;100.00
12969;BME280;6549;53.128;8.182;2022-10-18T12:27:43;102488.28;;;19.06;100.00
12969;BME280;6549;53.128;8.182;2022-10-18T12:31:21;102480.78;;;18.35;100.00
12969;BME280;6549;53.128;8.182;2022-10-18T12:34:38;102485.09;;;17.94;100.00
12969;BME280;6549;53.128;8.182;2022-10-18T12:38:01;102484.28;;;17.86;100.00
12969;BME280;6549;53.128;8.182;2022-10-18T12:41:05;102489.47;;;18.02;100.00
12969;BME280;6549;53.128;8.182;2022-10-18T12:44:23;102485.16;;;18.19;100.00
12969;BME280;6549;53.128;8.182;2022-10-18T12:47:28;102493.09;;;18.41;100.00
12969;BME280;6549;53.128;8.182;2022-10-18T12:50:33;102484.34;;;18.43;100.00
12969;BME280;6549;53.128;8.182;2022-10-18T12:53:36;102472.06;;;18.58;100.00
12969;BME280;6549;53.128;8.182;2022-10-18T12:56:39;102472.44;;;18.71;100.00
12969;BME280;6549;53.128;8.182;2022-10-18T12:59:41;102468.44;;;18.82;100.00
12969;BME280;6549;53.128;8.182;2022-10-18T13:02:41;102480.75;;;18.81;100.00
12969;BME280;6549;53.128;8.182;2022-10-18T13:09:19;102473.22;;;18.75;100.00
12969;BME280;6549;53.128;8.182;2022-10-18T13:15:44;102476.38;;;18.77;100.00
12969;BME280;6549;53.128;8.182;2022-10-18T13:18:52;102474.78;;;18.87;100.00
12969;BME280;6549;53.128;8.182;2022-10-18T13:22:21;102477.19;;;18.84;100.00
12969;BME280;6549;53.128;8.182;2022-10-18T13:25:31;102474.81;;;18.48;100.00
12969;BME280;6549;53.128;8.182;2022-10-18T13:35:51;102469.66;;;17.14;100.00
12969;BME280;6549;53.128;8.182;2022-10-18T13:51:51;102479.50;;;16.97;100.00
12969;BME280;6549;53.128;8.182;2022-10-18T14:01:35;102485.97;;;17.19;100.00
12969;BME280;6549;53.128;8.182;2022-10-18T14:08:19;102490.78;;;17.29;100.00
12969;BME280;6549;53.128;8.182;2022-10-18T14:11:23;102487.22;;;17.28;100.00
12969;BME280;6549;53.128;8.182;2022-10-18T14:14:31;102495.56;;;17.32;100.00
12969;BME280;6549;53.128;8.182;2022-10-18T14:17:45;102496.38;;;17.39;100.00
12969;BME280;6549;53.128;8.182;2022-10-18T14:20:50;102492.84;;;17.39;100.00
12969;BME280;6549;53.128;8.182;2022-10-18T14:23:52;102502.78;;;17.43;100.00
12969;BME280;6549;53.128;8.182;2022-10-18T14:27:21;102500.81;;;17.47;100.00
12969;BME280;6549;53.128;8.182;2022-10-18T14:30:21;102500.78;;;17.44;100.00
12969;BME280;6549;53.128;8.182;2022-10-18T14:36:41;102503.94;;;17.39;100.00
12969;BME280;6549;53.128;8.182;2022-10-18T14:39:45;102506.19;;;17.12;100.00
12969;BME280;6549;53.128;8.182;2022-10-18T14:42:47;102506.44;;;16.93;100.00
12969;BME280;6549;53.128;8.182;2022-10-18T14:45:48;102502.28;;;16.66;100.00
12969;BME280;6549;53.128;8.182;2022-10-18T14:49:00;102500.13;;;16.45;100.00
12969;BME280;6549;53.128;8.182;2022-10-18T14:52:00;102501.91;;;16.23;100.00
12969;BME280;6549;53.128;8.182;2022-10-18T14:55:01;102502.09;;;16.04;100.00
12969;BME280;6549;53.128;8.182;2022-10-18T14:58:01;102507.16;;;15.95;100.00
12969;BME280;6549;53.128;8.182;2022-10-18T15:01:02;102499.94;;;15.87;100.00
12969;BME280;6549;53.128;8.182;2022-10-18T15:04:10;102507.81;;;15.85;100.00
12969;BME280;6549;53.128;8.182;2022-10-18T15:07:16;102513.22;;;15.70;100.00
12969;BME280;6549;53.128;8.182;2022-10-18T15:10:21;102500.72;;;15.54;100.00
12969;BME280;6549;53.128;8.182;2022-10-18T15:13:22;102508.41;;;15.38;100.00
12969;BME280;6549;53.128;8.182;2022-10-18T15:16:29;102508.78;;;15.36;100.00
12969;BME280;6549;53.128;8.182;2022-10-18T15:19:35;102499.22;;;15.30;100.00
12969;BME280;6549;53.128;8.182;2022-10-18T15:22:38;102505.31;;;15.13;100.00
12969;BME280;6549;53.128;8.182;2022-10-18T15:25:38;102501.50;;;14.95;100.00
12969;BME280;6549;53.128;8.182;2022-10-18T15:28:41;102498.69;;;14.91;100.00
12969;BME280;6549;53.128;8.182;2022-10-18T15:31:50;102506.06;;;14.83;100.00
12969;BME280;6549;53.128;8.182;2022-10-18T15:34:52;102504.44;;;14.82;100.00
12969;BME280;6549;53.128;8.182;2022-10-18T15:37:54;102500.78;;;14.75;100.00
12969;BME280;6549;53.128;8.182;2022-10-18T15:40:56;102496.84;;;14.76;100.00
12969;BME280;6549;53.128;8.182;2022-10-18T15:44:30;102501.47;;;14.68;100.00
12969;BME280;6549;53.128;8.182;2022-10-18T15:47:30;102500.09;;;14.55;100.00
12969;BME280;6549;53.128;8.182;2022-10-18T15:53:53;102497.38;;;14.36;100.00
12969;BME280;6549;53.128;8.182;2022-10-18T15:56:53;102491.25;;;14.27;100.00
12969;BME280;6549;53.128;8.182;2022-10-18T15:59:59;102488.50;;;14.27;100.00
12969;BME280;6549;53.128;8.182;2022-10-18T16:03:01;102486.78;;;14.19;100.00
12969;BME280;6549;53.128;8.182;2022-10-18T16:06:04;102490.16;;;14.09;100.00
12969;BME280;6549;53.128;8.182;2022-10-18T16:09:05;102481.34;;;14.03;100.00
12969;BME280;6549;53.128;8.182;2022-10-18T16:12:06;102483.25;;;13.99;100.00
12969;BME280;6549;53.128;8.182;2022-10-18T16:15:06;102482.63;;;13.86;100.00
12969;BME280;6549;53.128;8.182;2022-10-18T16:18:11;102481.75;;;13.82;100.00
12969;BME280;6549;53.128;8.182;2022-10-18T16:21:33;102484.34;;;13.72;100.00
12969;BME280;6549;53.128;8.182;2022-10-18T16:24:34;102488.91;;;13.64;100.00
12969;BME280;6549;53.128;8.182;2022-10-18T16:27:34;102491.59;;;13.61;100.00
12969;BME280;6549;53.128;8.182;2022-10-18T16:30:35;102491.47;;;13.54;100.00
12969;BME280;6549;53.128;8.182;2022-10-18T16:33:35;102496.41;;;13.44;100.00
12969;BME280;6549;53.128;8.182;2022-10-18T16:36:36;102508.88;;;13.38;100.00
12969;BME280;6549;53.128;8.182;2022-10-18T16:39:36;102515.84;;;13.32;100.00
12969;BME280;6549;53.128;8.182;2022-10-18T16:42:37;102516.16;;;13.27;100.00
12969;BME280;6549;53.128;8.182;2022-10-18T16:45:37;102522.75;;;13.23;100.00
12969;BME280;6549;53.128;8.182;2022-10-18T16:48:37;102510.84;;;13.19;100.00
12969;BME280;6549;53.128;8.182;2022-10-18T16:51:37;102515.56;;;13.18;100.00
12969;BME280;6549;53.128;8.182;2022-10-18T16:54:38;102522.22;;;13.17;100.00
12969;BME280;6549;53.128;8.182;2022-10-18T16:57:38;102526.59;;;13.18;100.00
12969;BME280;6549;53.128;8.182;2022-10-18T17:00:39;102536.84;;;13.18;100.00
12969;BME280;6549;53.128;8.182;2022-10-18T17:03:40;102530.50;;;13.17;100.00
12969;BME280;6549;53.128;8.182;2022-10-18T17:06:40;102527.75;;;13.17;100.00
12969;BME280;6549;53.128;8.182;2022-10-18T17:09:41;102533.63;;;13.16;100.00
12969;BME280;6549;53.128;8.182;2022-10-18T17:12:41;102525.25;;;13.12;100.00
12969;BME280;6549;53.128;8.182;2022-10-18T17:15:41;102548.50;;;13.11;100.00
12969;BME280;6549;53.128;8.182;2022-10-18T17:18:42;102535.31;;;13.04;100.00
12969;BME280;6549;53.128;8.182;2022-10-18T17:21:42;102543.41;;;12.97;100.00
12969;BME280;6549;53.128;8.182;2022-10-18T17:24:43;102551.19;;;12.92;100.00
12969;BME280;6549;53.128;8.182;2022-10-18T17:27:43;102554.22;;;12.87;100.00
12969;BME280;6549;53.128;8.182;2022-10-18T17:30:44;102554.47;;;12.82;100.00
12969;BME280;6549;53.128;8.182;2022-10-18T17:33:45;102555.56;;;12.77;100.00
12969;BME280;6549;53.128;8.182;2022-10-18T17:36:45;102566.59;;;12.77;100.00
12969;BME280;6549;53.128;8.182;2022-10-18T17:39:45;102572.09;;;12.77;100.00
12969;BME280;6549;53.128;8.182;2022-10-18T17:42:46;102564.97;;;12.76;100.00
12969;BME280;6549;53.128;8.182;2022-10-18T17:45:47;102567.72;;;12.76;100.00
12969;BME280;6549;53.128;8.182;2022-10-18T17:48:47;102573.25;;;12.76;100.00
12969;BME280;6549;53.128;8.182;2022-10-18T17:51:48;102569.78;;;12.79;100.00